Time;durP1;ratioP1;P1;durP2;ratioP2;P2;SDS_P1;SDS_P2;PMS_P1;PMS_P2;Temp;Humidity;BMP_temperature;BMP_pressure;BME280_temperature;BME280_humidity;BME280_pressure;Samples;Min_cycle;Max_cycle;Signal;HPM_P1;HPM_P2
2021/12/21 00:00:39;;;;;;;0.20;0.20;;;;;;;22.89;7.03;100741.69;5155637;27;20019;-68
2021/12/21 00:03:04;;;;;;;0.30;0.30;;;;;;;22.91;7.25;100744.16;5155722;27;20023;-68
2021/12/21 00:05:30;;;;;;;0.30;0.30;;;;;;;22.88;7.19;100734.59;5155560;27;20027;-69
2021/12/21 00:08:00;;;;;;;0.30;0.30;;;;;;;22.87;7.18;100739.22;5155131;27;20426;-68
2021/12/21 00:10:30;;;;;;;0.20;0.20;;;;;;;22.87;7.09;100743.88;5155227;27;20050;-68
2021/12/21 00:15:53;;;;;;;0.20;0.20;;;;;;;22.85;7.13;100746.84;5155817;27;20023;-68
2021/12/21 00:25:54;;;;;;;0.20;0.20;;;;;;;22.87;7.16;100760.22;5154977;27;20027;-69
2021/12/21 00:28:20;;;;;;;0.10;0.10;;;;;;;22.85;7.24;100757.75;5155323;27;20057;-69
2021/12/21 00:30:45;;;;;;;0.22;0.22;;;;;;;22.87;7.25;100757.50;5155120;27;20029;-68
2021/12/21 00:33:10;;;;;;;0.20;0.20;;;;;;;22.85;7.35;100760.47;5154832;27;20049;-68
2021/12/21 00:35:36;;;;;;;0.30;0.30;;;;;;;22.86;7.24;100764.00;5154950;27;20122;-68
2021/12/21 00:38:03;;;;;;;0.20;0.20;;;;;;;22.85;7.26;100760.47;5136764;27;20042;-69
2021/12/21 00:40:30;;;;;;;0.20;0.20;;;;;;;22.84;7.21;100756.09;5134567;27;20039;-68
2021/12/21 00:42:55;;;;;;;0.20;0.20;;;;;;;22.83;7.39;100759.88;5134293;27;20084;-68
2021/12/21 00:45:20;;;;;;;0.20;0.20;;;;;;;22.82;7.39;100757.44;5134670;27;20019;-68
2021/12/21 00:47:48;;;;;;;0.28;0.28;;;;;;;22.83;7.17;100764.53;5134566;28;20019;-68
2021/12/21 00:50:17;;;;;;;0.22;0.22;;;;;;;22.83;7.24;100770.78;5117173;28;20031;-69
2021/12/21 00:52:47;;;;;;;0.20;0.20;;;;;;;22.84;7.19;100774.34;5116242;28;20406;-68
2021/12/21 00:55:12;;;;;;;0.40;0.40;;;;;;;22.83;7.19;100769.97;5134334;28;20023;-68
2021/12/21 00:57:38;;;;;;;0.20;0.20;;;;;;;22.85;7.22;100778.72;5134279;28;20030;-68
2021/12/21 01:00:05;;;;;;;0.52;0.30;;;;;;;22.82;7.09;100780.06;5134429;28;20031;-68
2021/12/21 01:02:30;;;;;;;0.20;0.20;;;;;;;22.84;7.00;100779.81;5134333;28;20023;-68
2021/12/21 01:04:57;;;;;;;0.25;0.25;;;;;;;22.84;7.24;100787.97;5134207;28;20351;-69
2021/12/21 01:07:30;;;;;;;0.20;0.20;;;;;;;22.82;7.03;100785.50;5134228;28;20039;-68
2021/12/21 01:12:49;;;;;;;0.20;0.20;;;;;;;22.85;6.86;100778.72;5135514;27;20119;-69
2021/12/21 01:15:31;;;;;;;0.20;0.20;;;;;;;22.82;6.84;100779.25;5138121;27;20035;-69
2021/12/21 01:18:19;;;;;;;0.20;0.20;;;;;;;22.83;6.71;100781.69;5138183;27;20034;-69
2021/12/21 01:21:04;;;;;;;0.20;0.20;;;;;;;22.82;6.71;100780.06;5137876;27;20039;-68
2021/12/21 01:26:37;;;;;;;0.20;0.20;;;;;;;22.84;6.60;100787.97;5074418;28;20072;-68
2021/12/21 01:36:48;;;;;;;0.20;0.20;;;;;;;22.82;6.47;100792.88;5074504;28;20542;-68
2021/12/21 01:39:51;;;;;;;0.30;0.30;;;;;;;22.80;6.57;100804.03;5074076;28;20108;-68
2021/12/21 01:50:17;;;;;;;0.20;0.20;;;;;;;22.79;6.38;100810.53;4961923;28;20039;-69
2021/12/21 01:52:42;;;;;;;0.20;0.20;;;;;;;22.78;6.34;100818.97;4975198;28;20433;-68
2021/12/21 01:55:08;;;;;;;0.20;0.20;;;;;;;22.80;6.50;100816.81;4975065;28;20043;-68
2021/12/21 01:57:33;;;;;;;0.20;0.20;;;;;;;22.80;6.44;100819.53;4975159;28;20050;-68
2021/12/21 01:59:59;;;;;;;0.20;0.20;;;;;;;22.78;6.49;100816.25;4974962;28;20078;-68
2021/12/21 02:02:24;;;;;;;0.40;0.40;;;;;;;22.79;6.33;100818.72;5013552;28;20033;-69
2021/12/21 02:04:50;;;;;;;0.30;0.30;;;;;;;22.77;6.32;100820.88;5033679;28;20072;-68
2021/12/21 02:07:15;;;;;;;0.30;0.30;;;;;;;22.75;6.28;100814.03;5033524;28;20038;-68
2021/12/21 02:09:40;;;;;;;0.30;0.30;;;;;;;22.76;6.20;100821.97;5033280;28;20080;-68
2021/12/21 02:12:08;;;;;;;0.30;0.30;;;;;;;22.75;6.17;100820.34;5033555;28;20210;-68
2021/12/21 02:14:34;;;;;;;0.20;0.20;;;;;;;22.76;6.16;100823.88;5033936;28;20041;-69
2021/12/21 02:20:39;;;;;;;0.30;0.30;;;;;;;22.87;6.38;100836.53;5033691;28;20044;-69
2021/12/21 02:23:10;;;;;;;0.28;0.25;;;;;;;22.78;6.18;100833.41;5033033;28;20073;-69
2021/12/21 02:30:45;;;;;;;0.40;0.40;;;;;;;22.76;5.99;100834.75;5053689;28;20044;-68
2021/12/21 02:33:12;;;;;;;0.20;0.20;;;;;;;22.75;5.92;100833.09;5053551;28;20108;-69
2021/12/21 02:35:37;;;;;;;0.30;0.30;;;;;;;22.76;6.04;100834.75;5054801;28;20029;-68
2021/12/21 02:38:03;;;;;;;0.30;0.30;;;;;;;22.76;6.05;100840.22;5054818;28;20479;-68
2021/12/21 02:40:28;;;;;;;0.20;0.20;;;;;;;22.76;5.97;100840.22;5054615;28;20025;-69
2021/12/21 02:42:54;;;;;;;0.20;0.20;;;;;;;22.74;5.99;100839.66;5054116;28;20440;-69
2021/12/21 02:45:19;;;;;;;0.30;0.30;;;;;;;22.74;5.98;100842.38;5054879;28;20037;-69
2021/12/21 02:47:44;;;;;;;0.25;0.25;;;;;;;22.75;5.93;100838.56;5054582;28;20040;-69
2021/12/21 02:50:10;;;;;;;0.20;0.20;;;;;;;22.72;5.80;100839.09;5055696;28;20106;-68
2021/12/21 02:52:35;;;;;;;0.20;0.20;;;;;;;22.73;5.88;100843.44;5055597;28;20459;-69
2021/12/21 02:55:02;;;;;;;0.20;0.20;;;;;;;22.73;5.87;100843.44;5055841;28;20025;-68
2021/12/21 02:57:27;;;;;;;0.30;0.30;;;;;;;22.75;5.80;100841.28;5123774;27;20042;-68
2021/12/21 02:59:53;;;;;;;0.20;0.20;;;;;;;22.72;5.84;100852.72;5139255;27;20019;-68
2021/12/21 03:02:18;;;;;;;0.30;0.30;;;;;;;22.72;5.88;100853.53;5137599;27;20457;-68
2021/12/21 03:04:44;;;;;;;1.45;0.20;;;;;;;22.72;5.90;100866.34;5136235;27;20461;-69
2021/12/21 03:10:00;;;;;;;0.22;0.22;;;;;;;22.73;5.90;100867.97;5136196;27;20058;-68
2021/12/21 03:14:51;;;;;;;0.22;0.22;;;;;;;22.72;5.84;100871.78;5136190;27;20034;-68
2021/12/21 03:17:19;;;;;;;0.20;0.20;;;;;;;22.74;5.75;100877.81;5135982;27;20027;-68
2021/12/21 03:19:44;;;;;;;0.20;0.20;;;;;;;22.72;5.74;100872.59;5135621;27;20043;-68
2021/12/21 03:22:10;;;;;;;0.20;0.20;;;;;;;22.68;5.73;100877.75;5135574;27;20026;-68
2021/12/21 03:24:35;;;;;;;0.40;0.40;;;;;;;22.71;5.77;100883.75;5135755;27;20023;-69
2021/12/21 03:27:01;;;;;;;0.20;0.20;;;;;;;22.68;5.58;100880.47;5135784;27;20069;-69
2021/12/21 03:29:26;;;;;;;0.20;0.20;;;;;;;22.71;5.68;100890.03;5136095;27;20559;-69
2021/12/21 03:31:52;;;;;;;0.20;0.20;;;;;;;22.68;5.73;100896.81;5135863;27;20362;-68
2021/12/21 03:34:17;;;;;;;0.20;0.20;;;;;;;22.71;5.53;100891.94;5135092;27;20027;-68
2021/12/21 03:36:42;;;;;;;0.30;0.30;;;;;;;22.71;5.64;100898.19;5135214;27;20027;-68
2021/12/21 03:39:15;;;;;;;0.30;0.30;;;;;;;22.71;5.62;100894.66;5130025;27;20462;-68
2021/12/21 03:41:45;;;;;;;0.20;0.20;;;;;;;22.68;5.54;100896.81;5114639;28;20028;-69
2021/12/21 03:44:10;;;;;;;0.20;0.20;;;;;;;22.66;5.48;100906.31;5114899;28;20033;-69
2021/12/21 03:46:44;;;;;;;0.40;0.40;;;;;;;22.68;5.54;100893.28;5114351;28;20318;-70
2021/12/21 03:49:34;;;;;;;0.30;0.30;;;;;;;22.69;5.51;100903.91;5114992;28;20373;-69
2021/12/21 03:51:54;;;;;;;0.20;0.20;;;;;;;22.71;5.52;100897.38;5114773;28;20034;-68
2021/12/21 03:54:20;;;;;;;0.30;0.30;;;;;;;22.71;5.60;100902.81;5114527;28;20015;-68
2021/12/21 03:56:48;;;;;;;0.30;0.30;;;;;;;22.67;5.48;100902.53;5114352;28;20077;-68
2021/12/21 03:59:14;;;;;;;0.20;0.20;;;;;;;22.68;5.45;100905.00;5114551;28;20023;-68
2021/12/21 04:01:39;;;;;;;0.20;0.20;;;;;;;22.69;5.48;100906.63;5113902;28;20024;-68
2021/12/21 04:04:05;;;;;;;0.20;0.20;;;;;;;22.72;5.40;100918.09;5114307;28;20104;-68
2021/12/21 04:06:30;;;;;;;0.40;0.40;;;;;;;22.73;5.53;100914.28;5115085;28;20070;-68
2021/12/21 04:08:56;;;;;;;0.20;0.20;;;;;;;22.75;5.53;100910.25;5113953;28;20496;-67
2021/12/21 04:11:21;;;;;;;0.30;0.30;;;;;;;22.79;5.53;100916.81;5095925;28;20504;-69
2021/12/21 04:13:48;;;;;;;0.20;0.20;;;;;;;22.82;5.58;100918.22;5114696;28;20044;-68
2021/12/21 04:16:13;;;;;;;0.30;0.30;;;;;;;22.84;5.55;100921.50;5115461;28;20450;-68
2021/12/21 04:18:39;;;;;;;0.28;0.28;;;;;;;22.86;5.59;100917.44;5114135;28;20019;-68
2021/12/21 04:21:06;;;;;;;0.30;0.30;;;;;;;22.88;5.52;100909.00;5114014;28;20023;-68
2021/12/21 04:23:31;;;;;;;0.20;0.20;;;;;;;22.90;5.32;100919.66;5114864;28;20027;-68
2021/12/21 04:25:57;;;;;;;0.20;0.20;;;;;;;22.91;5.47;100921.31;5114195;28;20374;-68
2021/12/21 04:28:22;;;;;;;0.20;0.20;;;;;;;22.85;5.59;100920.41;5113609;28;20024;-67
2021/12/21 04:30:47;;;;;;;0.20;0.20;;;;;;;22.93;5.64;100916.41;5114216;28;20020;-69
2021/12/21 04:33:13;;;;;;;0.20;0.20;;;;;;;22.99;5.47;100916.22;5113830;28;20031;-69
2021/12/21 04:35:38;;;;;;;0.32;0.32;;;;;;;23.03;5.51;100920.06;5113864;28;20023;-69
2021/12/21 04:38:24;;;;;;;0.30;0.30;;;;;;;23.03;5.66;100911.88;5113754;28;20375;-69
2021/12/21 04:41:00;;;;;;;0.40;0.40;;;;;;;23.09;5.50;100928.31;5115176;28;20422;-69
2021/12/21 04:43:25;;;;;;;0.30;0.30;;;;;;;23.10;5.61;100932.69;5113775;28;20131;-69
2021/12/21 04:45:50;;;;;;;0.52;0.30;;;;;;;23.12;5.67;100927.81;5113328;28;20051;-68
2021/12/21 04:48:16;;;;;;;0.20;0.20;;;;;;;23.16;5.51;100926.19;5112733;28;20031;-68
2021/12/21 04:50:41;;;;;;;0.30;0.30;;;;;;;23.17;5.46;100925.94;5113702;28;20019;-68
2021/12/21 04:53:07;;;;;;;0.65;0.28;;;;;;;23.20;5.28;100930.06;5113285;28;20065;-68
2021/12/21 04:55:32;;;;;;;3.72;0.60;;;;;;;23.23;5.49;100927.63;5113764;28;20028;-69
2021/12/21 04:57:58;;;;;;;22.17;1.10;;;;;;;23.27;5.41;100927.09;5113121;28;20524;-68
2021/12/21 05:00:23;;;;;;;13.10;4.45;;;;;;;23.27;5.60;100930.66;5113305;28;20028;-68
2021/12/21 05:02:48;;;;;;;25.42;7.60;;;;;;;23.27;5.48;100933.41;5113618;28;20106;-68
2021/12/21 05:05:14;;;;;;;21.38;7.75;;;;;;;23.31;5.56;100945.41;5113277;28;20498;-69
2021/12/21 05:07:42;;;;;;;16.15;6.28;;;;;;;23.33;5.58;100948.69;5113271;28;20070;-68
2021/12/21 05:10:09;;;;;;;11.45;4.03;;;;;;;23.35;5.48;100946.56;5126775;28;20035;-68
2021/12/21 05:12:36;;;;;;;9.98;2.85;;;;;;;23.36;5.54;100945.47;5133837;28;20035;-68
2021/12/21 05:15:02;;;;;;;6.45;1.92;;;;;;;23.37;5.37;100955.31;5115874;28;20034;-68
2021/12/21 05:17:28;;;;;;;4.70;1.48;;;;;;;23.39;5.61;100964.03;5133663;28;20016;-68
2021/12/21 05:19:53;;;;;;;2.97;1.42;;;;;;;23.42;5.48;100960.81;5133754;28;20031;-68
2021/12/21 05:22:18;;;;;;;3.45;1.42;;;;;;;23.41;5.48;100964.59;5134063;28;20023;-68
2021/12/21 05:24:44;;;;;;;2.55;1.30;;;;;;;23.43;5.41;100967.06;5134075;28;20492;-68
2021/12/21 05:27:10;;;;;;;1.48;0.82;;;;;;;23.47;5.36;100970.09;5133766;28;20023;-68
2021/12/21 05:29:36;;;;;;;4.70;1.10;;;;;;;23.49;5.82;100970.66;5133300;28;20037;-68
2021/12/21 05:32:02;;;;;;;14.43;4.32;;;;;;;23.48;5.47;100966.31;5115516;28;20027;-68
2021/12/21 05:34:27;;;;;;;26.58;9.45;;;;;;;23.50;5.25;100967.66;5133368;28;20023;-68
2021/12/21 05:36:53;;;;;;;38.05;13.85;;;;;;;23.52;5.68;100961.97;5133638;28;20027;-68
2021/12/21 05:39:22;;;;;;;40.45;15.20;;;;;;;23.54;5.60;100971.53;5129898;28;20023;-68
2021/12/21 05:41:52;;;;;;;102.07;38.03;;;;;;;23.54;5.50;100962.50;5113133;28;20092;-68
2021/12/21 05:44:19;;;;;;;107.05;40.30;;;;;;;23.54;5.41;100967.97;5113498;28;20102;-68
2021/12/21 05:46:45;;;;;;;82.85;30.75;;;;;;;23.56;5.39;100971.25;5113897;28;20016;-68
2021/12/21 05:49:10;;;;;;;58.30;22.95;;;;;;;23.59;5.28;100981.66;5114314;28;20022;-69
2021/12/21 05:51:35;;;;;;;37.92;15.10;;;;;;;23.59;5.54;100978.94;5113539;28;20456;-68
2021/12/21 05:54:01;;;;;;;32.63;11.88;;;;;;;23.62;5.17;100973.78;5113409;28;20152;-67
2021/12/21 05:56:26;;;;;;;21.30;8.18;;;;;;;23.63;5.42;100969.16;5113665;28;20016;-69
2021/12/21 05:58:51;;;;;;;17.23;6.50;;;;;;;23.66;5.32;100974.06;5118335;28;20028;-68
2021/12/21 06:01:17;;;;;;;144.75;53.30;;;;;;;23.66;5.32;100978.72;5121952;28;20030;-67
2021/12/21 06:03:43;;;;;;;130.50;52.88;;;;;;;23.69;5.40;100981.75;5105403;28;20032;-67
2021/12/21 06:06:13;;;;;;;141.55;53.35;;;;;;;23.70;5.34;100980.66;5122875;28;20027;-67
2021/12/21 06:08:38;;;;;;;57.20;22.42;;;;;;;23.62;5.43;100967.50;5124545;27;20026;-67
2021/12/21 06:11:06;;;;;;;81.32;29.27;;;;;;;23.71;5.44;100968.66;5123850;28;20028;-67
2021/12/21 06:13:58;;;;;;;58.65;20.77;;;;;;;23.72;5.31;100977.69;5121233;28;20031;-69
2021/12/21 06:22:43;;;;;;;35.38;14.65;;;;;;;23.77;5.28;100973.06;5102089;28;20036;-68
2021/12/21 06:27:13;;;;;;;15.80;4.35;;;;;;;23.80;5.33;100979.91;5115916;28;20027;-68
2021/12/21 06:29:39;;;;;;;14.02;4.35;;;;;;;23.83;5.60;100981.34;5115759;28;20496;-68
2021/12/21 06:32:04;;;;;;;10.43;2.92;;;;;;;23.84;5.20;100981.06;5115711;28;20052;-68
2021/12/21 06:34:30;;;;;;;6.60;2.20;;;;;;;23.84;5.50;100981.06;5115362;28;20133;-68
2021/12/21 06:36:56;;;;;;;5.03;1.98;;;;;;;23.86;5.45;100983.53;5115814;28;20019;-67
2021/12/21 06:39:21;;;;;;;3.72;1.70;;;;;;;23.81;5.77;100985.13;5115793;28;20019;-68
2021/12/21 06:41:47;;;;;;;2.10;1.30;;;;;;;23.87;5.65;100982.44;5115492;28;20043;-67
2021/12/21 06:44:14;;;;;;;3.42;1.50;;;;;;;23.89;5.89;100993.94;5115329;28;20385;-68
2021/12/21 06:47:06;;;;;;;3.00;1.40;;;;;;;23.93;5.93;101001.31;5115665;28;20023;-68
2021/12/21 06:52:16;;;;;;;2.08;1.20;;;;;;;23.98;5.68;101004.09;5115945;28;20038;-68
2021/12/21 06:54:41;;;;;;;3.25;1.63;;;;;;;23.99;5.46;101013.09;5114948;28;20530;-68
2021/12/21 06:57:07;;;;;;;6.03;1.85;;;;;;;23.91;5.44;101008.16;5115908;28;20019;-68
2021/12/21 06:59:32;;;;;;;5.25;2.17;;;;;;;24.03;5.65;101008.78;5115972;28;20023;-67
2021/12/21 07:01:58;;;;;;;4.95;2.05;;;;;;;24.08;5.78;101008.81;5115754;28;20022;-67
2021/12/21 07:04:24;;;;;;;2.00;1.20;;;;;;;24.04;5.52;101015.03;5115428;28;20035;-66
2021/12/21 07:06:51;;;;;;;2.08;1.10;;;;;;;24.05;5.63;101024.91;5115069;28;20024;-66
2021/12/21 07:09:28;;;;;;;3.20;1.30;;;;;;;24.10;6.00;101014.81;5121123;27;20087;-68
2021/12/21 07:20:19;;;;;;;1.48;0.90;;;;;;;24.14;5.71;101023.31;5092528;28;20098;-66
2021/12/21 07:22:45;;;;;;;1.70;0.73;;;;;;;24.15;5.91;101031.25;5092627;28;20108;-67
2021/12/21 07:25:10;;;;;;;0.68;0.55;;;;;;;24.19;6.01;101032.34;5093079;28;20478;-66
2021/12/21 07:27:36;;;;;;;1.67;0.70;;;;;;;24.20;5.92;101027.72;5092833;28;20171;-68
2021/12/21 07:30:02;;;;;;;1.15;0.63;;;;;;;24.22;5.63;101031.00;5094077;28;20035;-68
2021/12/21 07:32:28;;;;;;;0.57;0.50;;;;;;;24.23;5.90;101034.56;5092099;28;20127;-68
2021/12/21 07:34:53;;;;;;;0.82;0.60;;;;;;;24.18;6.04;101035.34;5092166;28;20075;-68
2021/12/21 07:37:19;;;;;;;2.30;0.60;;;;;;;24.26;6.05;101042.22;5092477;28;20489;-68
2021/12/21 07:39:44;;;;;;;1.10;0.60;;;;;;;24.25;5.92;101046.03;5092457;28;20020;-68
2021/12/21 07:42:10;;;;;;;1.80;0.63;;;;;;;24.14;5.63;101051.44;5092396;28;20135;-68
2021/12/21 07:44:35;;;;;;;0.65;0.50;;;;;;;24.25;5.80;101049.63;5075499;28;20032;-67
2021/12/21 07:47:01;;;;;;;1.02;0.70;;;;;;;24.25;5.54;101035.13;5091762;28;20406;-69
2021/12/21 07:49:26;;;;;;;1.50;0.68;;;;;;;24.25;5.66;101049.63;5091878;28;20342;-68
2021/12/21 07:51:51;;;;;;;1.73;0.30;;;;;;;24.30;5.83;101046.06;5091470;28;20066;-67
2021/12/21 07:54:17;;;;;;;0.80;0.40;;;;;;;24.30;6.14;101038.72;5091324;28;20039;-66
2021/12/21 07:56:43;;;;;;;0.50;0.50;;;;;;;24.32;5.72;101046.66;5128082;27;20042;-67
2021/12/21 07:59:11;;;;;;;0.40;0.38;;;;;;;24.30;5.64;101044.19;5134516;27;20490;-67
2021/12/21 08:01:37;;;;;;;0.43;0.43;;;;;;;24.33;6.02;101059.22;5134299;27;20046;-68
2021/12/21 08:04:03;;;;;;;0.30;0.30;;;;;;;24.21;5.50;101055.84;5134565;27;20035;-68
2021/12/21 08:06:31;;;;;;;2.05;0.30;;;;;;;24.29;5.56;101063.56;5134631;27;20592;-67
2021/12/21 08:08:57;;;;;;;0.68;0.50;;;;;;;24.35;5.75;101059.75;5130540;27;20541;-67
2021/12/21 08:12:12;;;;;;;1.15;0.60;;;;;;;24.30;5.99;101059.72;5114150;28;20066;-67
2021/12/21 08:14:14;;;;;;;1.80;0.95;;;;;;;24.36;5.76;101054.03;5114215;28;20037;-68
2021/12/21 08:16:39;;;;;;;1.65;1.00;;;;;;;24.36;6.04;101062.22;5115770;28;20497;-68
2021/12/21 08:19:05;;;;;;;2.28;0.90;;;;;;;24.48;5.62;101058.50;5095515;28;20030;-67
2021/12/21 08:21:31;;;;;;;1.17;0.80;;;;;;;24.44;5.82;101044.53;5114410;28;20326;-67
2021/12/21 08:23:57;;;;;;;1.42;0.98;;;;;;;24.39;5.85;101060.91;5113789;28;20034;-67
2021/12/21 08:26:23;;;;;;;2.28;1.20;;;;;;;24.43;5.85;101059.28;5113276;28;20037;-67
2021/12/21 08:28:48;;;;;;;20.17;8.68;;;;;;;24.43;6.07;101051.06;5113899;28;20032;-68
2021/12/21 08:31:13;;;;;;;3.67;1.75;;;;;;;24.46;5.71;101057.94;5114255;28;20095;-69
2021/12/21 08:33:40;;;;;;;28.02;11.60;;;;;;;24.48;5.76;101055.75;5095890;28;20347;-68
2021/12/21 08:36:06;;;;;;;24.17;9.90;;;;;;;24.46;5.73;101060.66;5113404;28;20031;-65
2021/12/21 08:38:32;;;;;;;14.68;6.25;;;;;;;24.47;5.50;101054.09;5113457;28;20024;-66
2021/12/21 08:40:59;;;;;;;88.97;35.25;;;;;;;24.49;5.50;101054.66;5112963;28;20020;-66
2021/12/21 08:43:25;;;;;;;40.08;17.25;;;;;;;24.42;5.35;101056.81;5113563;28;20035;-67
2021/12/21 08:45:52;;;;;;;32.35;13.10;;;;;;;24.50;5.71;101062.59;5095934;28;20026;-68
2021/12/21 08:48:17;;;;;;;43.42;15.65;;;;;;;24.49;5.68;101063.69;5113901;28;20027;-66
2021/12/21 08:50:43;;;;;;;32.13;11.88;;;;;;;24.52;5.78;101062.31;5113490;28;20107;-67
2021/12/21 08:53:08;;;;;;;26.27;9.63;;;;;;;24.51;5.56;101066.97;5114177;28;20035;-67
2021/12/21 08:55:34;;;;;;;26.52;8.70;;;;;;;24.58;5.21;101066.78;5095447;28;20020;-66
2021/12/21 08:57:59;;;;;;;22.63;6.82;;;;;;;24.57;5.15;101064.31;5113719;28;20023;-67
2021/12/21 09:00:25;;;;;;;18.30;5.88;;;;;;;24.57;5.74;101058.84;5113326;28;20020;-66
2021/12/21 09:02:53;;;;;;;16.85;6.13;;;;;;;24.54;5.45;101071.94;5114241;28;20472;-68
2021/12/21 09:05:21;;;;;;;11.23;4.22;;;;;;;24.49;5.58;101071.88;5097532;28;20031;-67
2021/12/21 09:07:47;;;;;;;10.25;3.80;;;;;;;24.50;5.29;101059.84;5113981;28;20055;-68
2021/12/21 09:10:14;;;;;;;7.10;3.30;;;;;;;24.54;5.61;101055.56;5093191;28;20071;-68
2021/12/21 09:12:39;;;;;;;25.75;8.55;;;;;;;24.59;5.62;101051.19;5115618;28;20023;-68
2021/12/21 09:15:05;;;;;;;9.50;3.35;;;;;;;24.55;5.28;101048.16;5133943;28;20030;-67
2021/12/21 09:17:31;;;;;;;7.97;2.92;;;;;;;24.53;5.42;101048.41;5136398;28;20027;-67
2021/12/21 09:19:56;;;;;;;5.97;2.58;;;;;;;24.58;5.17;101053.13;5135171;28;20385;-67
2021/12/21 09:22:22;;;;;;;4.20;1.73;;;;;;;24.57;5.34;101051.47;5134957;28;20464;-67
2021/12/21 09:24:47;;;;;;;2.85;1.48;;;;;;;24.59;5.16;101052.00;5135125;28;20106;-69
2021/12/21 09:27:13;;;;;;;3.58;2.05;;;;;;;24.57;4.95;101048.72;5115855;28;20380;-67
2021/12/21 09:29:38;;;;;;;2.35;1.33;;;;;;;24.63;5.32;101057.75;5134084;28;20031;-67
2021/12/21 09:32:06;;;;;;;1.92;1.13;;;;;;;24.61;5.14;101059.94;5134535;28;20031;-67
2021/12/21 09:34:31;;;;;;;2.30;1.45;;;;;;;24.58;5.08;101063.19;5137739;27;20110;-68
2021/12/21 09:36:56;;;;;;;5.85;1.35;;;;;;;24.60;5.17;101063.78;5137615;27;20025;-66
2021/12/21 09:39:22;;;;;;;4.13;1.67;;;;;;;24.63;5.26;101061.34;5137999;27;20031;-67
2021/12/21 09:41:47;;;;;;;2.58;1.50;;;;;;;24.61;5.35;101055.31;5158668;27;20027;-67
2021/12/21 09:44:13;;;;;;;3.95;1.92;;;;;;;24.63;5.27;101055.03;5158965;27;20376;-67
2021/12/21 09:46:38;;;;;;;3.60;1.38;;;;;;;24.65;5.18;101061.06;5140075;27;20414;-67
2021/12/21 09:49:04;;;;;;;3.08;2.00;;;;;;;24.65;5.32;101061.06;5158531;27;20468;-68
2021/12/21 09:51:29;;;;;;;2.47;1.30;;;;;;;24.66;4.94;101066.25;5159108;27;20026;-67
2021/12/21 09:53:55;;;;;;;4.45;1.58;;;;;;;24.63;5.55;101064.06;5140817;27;20018;-67
2021/12/21 09:56:22;;;;;;;4.25;1.88;;;;;;;24.63;5.12;101064.06;5157901;27;20161;-67
2021/12/21 09:58:47;;;;;;;3.97;1.45;;;;;;;24.67;5.23;101069.81;5157709;27;20022;-68
2021/12/21 10:01:13;;;;;;;2.03;1.20;;;;;;;24.66;5.02;101068.16;5158105;27;20029;-68
2021/12/21 10:03:38;;;;;;;1.33;0.80;;;;;;;24.64;4.95;101065.69;5157320;27;20033;-67
2021/12/21 10:06:10;;;;;;;1.23;0.77;;;;;;;24.54;5.10;101071.94;5156990;27;20403;-68
2021/12/21 10:08:36;;;;;;;1.40;0.73;;;;;;;24.64;5.08;101070.34;5104065;27;20042;-66
2021/12/21 10:11:01;;;;;;;1.55;1.00;;;;;;;24.62;5.19;101072.53;5157632;27;20020;-67
2021/12/21 10:13:27;;;;;;;2.72;1.38;;;;;;;24.68;5.01;101065.97;5157230;27;20031;-66
2021/12/21 10:15:53;;;;;;;2.28;1.33;;;;;;;24.71;4.94;101069.00;5156804;27;20026;-66
2021/12/21 10:18:25;;;;;;;1.85;1.00;;;;;;;24.70;5.22;101061.91;5157006;27;20492;-66
2021/12/21 10:20:51;;;;;;;3.25;1.13;;;;;;;24.71;5.47;101062.72;5157117;27;20105;-66
2021/12/21 10:23:16;;;;;;;2.10;0.93;;;;;;;24.71;5.44;101062.72;5157082;27;20114;-67
2021/12/21 10:25:50;;;;;;;1.50;0.90;;;;;;;24.69;5.37;101062.19;5157268;27;20125;-66
2021/12/21 10:28:26;;;;;;;1.83;0.80;;;;;;;24.72;5.02;101061.66;5157242;27;20022;-66
2021/12/21 10:30:53;;;;;;;0.90;0.70;;;;;;;24.72;4.89;101061.66;5157800;27;20035;-68
2021/12/21 10:33:18;;;;;;;1.10;0.77;;;;;;;24.72;5.34;101054.25;5157918;27;20019;-68
2021/12/21 10:35:43;;;;;;;1.00;0.70;;;;;;;24.73;5.09;101057.81;5157474;27;20030;-69
2021/12/21 10:38:09;;;;;;;1.70;0.50;;;;;;;24.74;5.14;101060.28;5138882;27;20027;-68
2021/12/21 10:40:36;;;;;;;0.77;0.50;;;;;;;24.76;5.06;101068.22;5131482;27;20410;-69
2021/12/21 10:43:09;;;;;;;2.03;0.60;;;;;;;24.77;5.50;101069.88;5121430;27;20079;-69
2021/12/21 10:45:39;;;;;;;1.17;0.73;;;;;;;24.77;5.48;101080.81;5135586;27;20027;-69
2021/12/21 10:48:16;;;;;;;2.83;1.35;;;;;;;24.78;5.63;101079.69;5136148;27;20472;-68
2021/12/21 10:50:42;;;;;;;3.13;1.27;;;;;;;24.78;5.79;101082.44;5136641;27;20114;-70
2021/12/21 10:53:08;;;;;;;1.77;1.15;;;;;;;24.80;5.35;101074.81;5136202;27;20019;-68
2021/12/21 10:55:35;;;;;;;6.63;2.30;;;;;;;24.83;5.78;101073.44;5100595;27;20541;-68
2021/12/21 10:58:04;;;;;;;10.25;3.55;;;;;;;24.81;5.80;101079.19;5136173;27;20027;-68
2021/12/21 11:00:30;;;;;;;9.20;3.38;;;;;;;24.78;5.79;101076.97;5136443;27;20027;-67
2021/12/21 11:02:55;;;;;;;9.38;2.50;;;;;;;24.86;5.70;101076.47;5137309;27;20080;-69
2021/12/21 11:05:21;;;;;;;5.55;2.42;;;;;;;24.82;5.46;101071.78;5136959;27;20027;-67
2021/12/21 11:07:52;;;;;;;10.50;4.00;;;;;;;24.88;5.49;101077.00;5136407;27;20028;-68
2021/12/21 11:10:26;;;;;;;6.68;2.65;;;;;;;24.90;5.45;101074.03;5136376;27;20135;-68
2021/12/21 11:12:54;;;;;;;3.47;1.65;;;;;;;24.87;5.78;101074.53;5136154;27;20023;-67
2021/12/21 11:15:29;;;;;;;6.00;2.35;;;;;;;24.86;5.71;101068.25;5135873;27;20410;-68
2021/12/21 11:17:58;;;;;;;10.70;3.40;;;;;;;24.81;5.82;101070.97;5135934;27;20038;-69
2021/12/21 11:20:24;;;;;;;8.80;3.80;;;;;;;24.77;5.63;101075.34;5135456;27;20123;-68
2021/12/21 11:22:49;;;;;;;12.15;4.55;;;;;;;24.85;5.90;101072.09;5135736;27;20031;-68
2021/12/21 11:25:15;;;;;;;11.27;4.40;;;;;;;24.84;5.49;101075.09;5135254;27;20177;-70
2021/12/21 11:27:41;;;;;;;12.35;4.70;;;;;;;24.85;5.77;101069.38;5136602;27;20023;-68
2021/12/21 11:30:11;;;;;;;14.95;4.43;;;;;;;24.86;5.62;101075.66;5136396;27;20102;-67
2021/12/21 11:32:39;;;;;;;13.65;5.07;;;;;;;24.89;5.72;101073.22;5135164;27;20468;-69
2021/12/21 11:37:40;;;;;;;13.55;4.70;;;;;;;24.86;5.50;101073.72;5135614;27;20062;-68
2021/12/21 11:40:07;;;;;;;8.82;3.70;;;;;;;24.88;5.53;101084.41;5139497;27;20435;-69
2021/12/21 11:42:38;;;;;;;6.40;2.92;;;;;;;24.90;5.72;101085.78;5156070;27;20079;-70
2021/12/21 11:45:15;;;;;;;8.80;3.22;;;;;;;24.86;5.73;101078.38;5155722;27;20034;-68
2021/12/21 11:47:47;;;;;;;8.95;2.92;;;;;;;24.89;5.57;101081.41;5137561;27;20050;-68
2021/12/21 11:50:13;;;;;;;7.22;2.63;;;;;;;24.90;5.87;101074.03;5137415;27;20042;-68
2021/12/21 11:52:46;;;;;;;9.27;3.15;;;;;;;24.92;5.78;101089.09;5137929;27;20059;-68
2021/12/21 11:55:12;;;;;;;8.52;3.15;;;;;;;24.94;5.58;101091.56;5156624;27;20030;-68
2021/12/21 11:57:38;;;;;;;5.15;2.30;;;;;;;24.93;5.63;101090.72;5155823;27;20034;-67
2021/12/21 12:00:12;;;;;;;5.60;2.47;;;;;;;24.91;5.65;101090.16;5155330;27;20379;-67
2021/12/21 12:02:38;;;;;;;3.95;1.85;;;;;;;24.85;5.31;101093.13;5137603;27;20046;-69
2021/12/21 12:05:17;;;;;;;4.28;1.67;;;;;;;24.88;5.19;101082.47;5156144;27;20042;-67
2021/12/21 12:07:42;;;;;;;2.58;1.27;;;;;;;24.86;5.46;101081.94;5137512;27;20318;-67
2021/12/21 12:10:10;;;;;;;3.60;1.60;;;;;;;24.83;4.96;101090.66;5141655;27;20054;-68
2021/12/21 12:12:36;;;;;;;3.22;1.17;;;;;;;24.84;5.15;101096.97;5135066;27;20080;-67
2021/12/21 12:15:05;;;;;;;1.33;0.93;;;;;;;24.90;5.45;101104.09;5134597;27;20027;-67
2021/12/21 12:17:30;;;;;;;2.95;1.15;;;;;;;24.92;5.69;101105.50;5134967;27;20037;-66
2021/12/21 12:20:07;;;;;;;1.23;0.93;;;;;;;24.94;5.34;101107.97;5116107;27;20031;-68
2021/12/21 12:22:33;;;;;;;2.03;0.80;;;;;;;24.91;5.50;101103.81;5135027;27;20031;-67
2021/12/21 12:24:59;;;;;;;4.68;1.52;;;;;;;24.93;5.36;101109.03;5134446;27;20051;-67
2021/12/21 12:27:26;;;;;;;3.38;1.00;;;;;;;24.91;5.18;101113.94;5134650;27;20089;-66
2021/12/21 12:29:54;;;;;;;2.40;1.23;;;;;;;24.88;5.42;101109.81;5134062;27;20487;-67
2021/12/21 12:32:36;;;;;;;3.30;1.10;;;;;;;24.94;5.21;101110.69;5134201;27;20030;-67
2021/12/21 12:35:21;;;;;;;2.83;1.08;;;;;;;24.96;5.20;101104.94;5134237;27;20027;-68
2021/12/21 12:37:52;;;;;;;3.22;1.45;;;;;;;24.91;5.37;101103.00;5135319;27;20031;-67
2021/12/21 12:40:19;;;;;;;10.45;3.40;;;;;;;24.90;4.94;101101.34;5129099;27;20027;-66